sensor_id;sensor_type;location;lat;lon;timestamp;P1;durP1;ratioP1;P2;durP2;ratioP2
42478;SDS011;28110;47.080;9.476;2024-01-15T00:01:17;11.00;;;5.17;;
42478;SDS011;28110;47.080;9.476;2024-01-15T00:03:42;11.25;;;5.35;;
42478;SDS011;28110;47.080;9.476;2024-01-15T00:06:08;10.33;;;5.10;;
42478;SDS011;28110;47.080;9.476;2024-01-15T00:08:33;13.73;;;6.10;;
42478;SDS011;28110;47.080;9.476;2024-01-15T00:10:59;11.00;;;5.50;;
42478;SDS011;28110;47.080;9.476;2024-01-15T00:13:24;10.90;;;5.33;;
42478;SDS011;28110;47.080;9.476;2024-01-15T00:15:50;12.60;;;5.50;;
42478;SDS011;28110;47.080;9.476;2024-01-15T00:18:15;11.35;;;5.57;;
42478;SDS011;28110;47.080;9.476;2024-01-15T00:20:41;9.47;;;5.73;;
42478;SDS011;28110;47.080;9.476;2024-01-15T00:23:06;12.20;;;5.60;;
42478;SDS011;28110;47.080;9.476;2024-01-15T00:25:32;11.40;;;5.78;;
42478;SDS011;28110;47.080;9.476;2024-01-15T00:27:58;12.63;;;6.23;;
42478;SDS011;28110;47.080;9.476;2024-01-15T00:30:23;14.37;;;6.10;;
42478;SDS011;28110;47.080;9.476;2024-01-15T00:32:49;11.18;;;5.60;;
42478;SDS011;28110;47.080;9.476;2024-01-15T00:35:14;13.73;;;6.23;;
42478;SDS011;28110;47.080;9.476;2024-01-15T00:37:40;11.80;;;6.00;;
42478;SDS011;28110;47.080;9.476;2024-01-15T00:40:05;12.55;;;5.50;;
42478;SDS011;28110;47.080;9.476;2024-01-15T00:42:32;12.90;;;6.00;;
42478;SDS011;28110;47.080;9.476;2024-01-15T00:44:59;13.57;;;6.15;;
42478;SDS011;28110;47.080;9.476;2024-01-15T00:47:24;12.20;;;5.83;;
42478;SDS011;28110;47.080;9.476;2024-01-15T00:49:50;17.13;;;6.38;;
42478;SDS011;28110;47.080;9.476;2024-01-15T00:52:15;14.30;;;6.10;;
42478;SDS011;28110;47.080;9.476;2024-01-15T00:54:41;14.67;;;6.50;;
42478;SDS011;28110;47.080;9.476;2024-01-15T00:57:06;13.90;;;7.22;;
42478;SDS011;28110;47.080;9.476;2024-01-15T00:59:32;16.07;;;6.30;;
42478;SDS011;28110;47.080;9.476;2024-01-15T01:01:57;14.33;;;6.30;;
42478;SDS011;28110;47.080;9.476;2024-01-15T01:04:23;13.15;;;6.25;;
42478;SDS011;28110;47.080;9.476;2024-01-15T01:06:48;10.83;;;6.00;;
42478;SDS011;28110;47.080;9.476;2024-01-15T01:09:14;14.43;;;6.30;;
42478;SDS011;28110;47.080;9.476;2024-01-15T01:11:40;14.95;;;6.75;;
42478;SDS011;28110;47.080;9.476;2024-01-15T01:14:05;11.87;;;5.47;;
42478;SDS011;28110;47.080;9.476;2024-01-15T01:16:31;12.05;;;6.68;;
42478;SDS011;28110;47.080;9.476;2024-01-15T01:19:03;12.98;;;6.28;;
42478;SDS011;28110;47.080;9.476;2024-01-15T01:21:29;11.48;;;5.88;;
42478;SDS011;28110;47.080;9.476;2024-01-15T01:23:55;12.27;;;6.13;;
42478;SDS011;28110;47.080;9.476;2024-01-15T01:26:20;11.57;;;6.50;;
42478;SDS011;28110;47.080;9.476;2024-01-15T01:28:46;13.47;;;6.27;;
42478;SDS011;28110;47.080;9.476;2024-01-15T01:31:11;15.90;;;7.10;;
42478;SDS011;28110;47.080;9.476;2024-01-15T01:33:38;14.38;;;6.78;;
42478;SDS011;28110;47.080;9.476;2024-01-15T01:36:08;13.83;;;6.90;;
42478;SDS011;28110;47.080;9.476;2024-01-15T01:38:34;14.00;;;7.47;;
42478;SDS011;28110;47.080;9.476;2024-01-15T01:41:00;15.85;;;6.85;;
42478;SDS011;28110;47.080;9.476;2024-01-15T01:43:26;14.20;;;7.00;;
42478;SDS011;28110;47.080;9.476;2024-01-15T01:45:52;13.07;;;5.93;;
42478;SDS011;28110;47.080;9.476;2024-01-15T01:48:19;12.55;;;6.45;;
42478;SDS011;28110;47.080;9.476;2024-01-15T01:50:45;11.53;;;6.17;;
42478;SDS011;28110;47.080;9.476;2024-01-15T01:53:10;12.57;;;7.03;;
42478;SDS011;28110;47.080;9.476;2024-01-15T01:55:36;12.75;;;6.43;;
42478;SDS011;28110;47.080;9.476;2024-01-15T01:58:03;19.27;;;8.53;;
42478;SDS011;28110;47.080;9.476;2024-01-15T02:00:30;19.08;;;8.93;;
42478;SDS011;28110;47.080;9.476;2024-01-15T02:02:55;19.00;;;9.35;;
42478;SDS011;28110;47.080;9.476;2024-01-15T02:05:21;20.63;;;9.93;;
42478;SDS011;28110;47.080;9.476;2024-01-15T02:07:47;19.17;;;9.10;;
42478;SDS011;28110;47.080;9.476;2024-01-15T02:10:13;19.20;;;9.63;;
42478;SDS011;28110;47.080;9.476;2024-01-15T02:12:39;15.40;;;8.80;;
42478;SDS011;28110;47.080;9.476;2024-01-15T02:15:04;15.15;;;7.70;;
42478;SDS011;28110;47.080;9.476;2024-01-15T02:17:30;13.87;;;7.27;;
42478;SDS011;28110;47.080;9.476;2024-01-15T02:19:56;11.65;;;6.20;;
42478;SDS011;28110;47.080;9.476;2024-01-15T02:22:21;10.63;;;6.20;;
42478;SDS011;28110;47.080;9.476;2024-01-15T02:24:47;10.77;;;6.07;;
42478;SDS011;28110;47.080;9.476;2024-01-15T02:27:12;10.60;;;5.70;;
42478;SDS011;28110;47.080;9.476;2024-01-15T02:29:38;9.97;;;5.70;;
42478;SDS011;28110;47.080;9.476;2024-01-15T02:32:04;11.75;;;5.82;;
42478;SDS011;28110;47.080;9.476;2024-01-15T02:34:31;10.50;;;5.85;;
42478;SDS011;28110;47.080;9.476;2024-01-15T02:36:57;8.97;;;5.10;;
42478;SDS011;28110;47.080;9.476;2024-01-15T02:39:23;11.07;;;5.30;;
42478;SDS011;28110;47.080;9.476;2024-01-15T02:41:48;14.40;;;7.73;;
42478;SDS011;28110;47.080;9.476;2024-01-15T02:44:14;17.03;;;9.70;;
42478;SDS011;28110;47.080;9.476;2024-01-15T02:46:39;23.48;;;10.40;;
42478;SDS011;28110;47.080;9.476;2024-01-15T02:49:05;20.00;;;10.33;;
42478;SDS011;28110;47.080;9.476;2024-01-15T02:51:30;23.00;;;9.87;;
42478;SDS011;28110;47.080;9.476;2024-01-15T02:53:56;20.58;;;10.73;;
42478;SDS011;28110;47.080;9.476;2024-01-15T02:56:21;19.20;;;9.93;;
42478;SDS011;28110;47.080;9.476;2024-01-15T02:58:47;15.80;;;8.30;;
42478;SDS011;28110;47.080;9.476;2024-01-15T03:01:12;12.98;;;7.30;;
42478;SDS011;28110;47.080;9.476;2024-01-15T03:03:39;12.38;;;5.63;;
42478;SDS011;28110;47.080;9.476;2024-01-15T03:06:05;8.20;;;3.95;;
42478;SDS011;28110;47.080;9.476;2024-01-15T03:08:31;6.67;;;3.80;;
42478;SDS011;28110;47.080;9.476;2024-01-15T03:10:56;9.70;;;3.37;;
42478;SDS011;28110;47.080;9.476;2024-01-15T03:13:22;4.72;;;2.72;;
42478;SDS011;28110;47.080;9.476;2024-01-15T03:15:47;14.07;;;8.03;;
42478;SDS011;28110;47.080;9.476;2024-01-15T03:18:13;19.93;;;10.60;;
42478;SDS011;28110;47.080;9.476;2024-01-15T03:20:39;20.15;;;10.00;;
42478;SDS011;28110;47.080;9.476;2024-01-15T03:23:04;20.30;;;9.87;;
42478;SDS011;28110;47.080;9.476;2024-01-15T03:25:30;18.13;;;10.33;;
42478;SDS011;28110;47.080;9.476;2024-01-15T03:27:55;17.30;;;9.60;;
42478;SDS011;28110;47.080;9.476;2024-01-15T03:30:21;20.40;;;9.27;;
42478;SDS011;28110;47.080;9.476;2024-01-15T03:32:46;16.67;;;8.40;;
42478;SDS011;28110;47.080;9.476;2024-01-15T03:35:12;16.30;;;8.90;;
42478;SDS011;28110;47.080;9.476;2024-01-15T03:37:38;16.13;;;8.37;;
42478;SDS011;28110;47.080;9.476;2024-01-15T03:40:03;19.70;;;10.07;;
42478;SDS011;28110;47.080;9.476;2024-01-15T03:42:29;19.20;;;10.53;;
42478;SDS011;28110;47.080;9.476;2024-01-15T03:44:55;18.90;;;10.75;;
42478;SDS011;28110;47.080;9.476;2024-01-15T03:47:20;20.20;;;9.93;;
42478;SDS011;28110;47.080;9.476;2024-01-15T03:49:46;18.37;;;9.63;;
42478;SDS011;28110;47.080;9.476;2024-01-15T03:52:11;16.90;;;9.82;;
42478;SDS011;28110;47.080;9.476;2024-01-15T03:54:37;20.73;;;10.50;;
42478;SDS011;28110;47.080;9.476;2024-01-15T03:57:03;20.10;;;10.05;;
42478;SDS011;28110;47.080;9.476;2024-01-15T03:59:29;17.53;;;9.43;;
42478;SDS011;28110;47.080;9.476;2024-01-15T04:01:55;20.20;;;10.40;;
42478;SDS011;28110;47.080;9.476;2024-01-15T04:04:20;21.33;;;9.53;;
42478;SDS011;28110;47.080;9.476;2024-01-15T04:06:46;21.00;;;10.90;;
42478;SDS011;28110;47.080;9.476;2024-01-15T04:09:12;18.90;;;10.55;;
42478;SDS011;28110;47.080;9.476;2024-01-15T04:11:38;24.85;;;12.93;;
42478;SDS011;28110;47.080;9.476;2024-01-15T04:14:04;21.20;;;11.35;;
42478;SDS011;28110;47.080;9.476;2024-01-15T04:16:30;23.23;;;12.20;;
42478;SDS011;28110;47.080;9.476;2024-01-15T04:18:55;22.05;;;12.13;;
42478;SDS011;28110;47.080;9.476;2024-01-15T04:21:21;23.33;;;12.00;;
42478;SDS011;28110;47.080;9.476;2024-01-15T04:23:46;21.43;;;11.73;;
42478;SDS011;28110;47.080;9.476;2024-01-15T04:26:12;23.88;;;11.98;;
42478;SDS011;28110;47.080;9.476;2024-01-15T04:28:37;24.53;;;12.30;;
42478;SDS011;28110;47.080;9.476;2024-01-15T04:31:03;23.73;;;11.90;;
42478;SDS011;28110;47.080;9.476;2024-01-15T04:33:28;21.13;;;10.77;;
42478;SDS011;28110;47.080;9.476;2024-01-15T04:35:54;23.30;;;11.18;;
42478;SDS011;28110;47.080;9.476;2024-01-15T04:38:19;22.97;;;11.97;;
42478;SDS011;28110;47.080;9.476;2024-01-15T04:40:45;23.57;;;11.33;;
42478;SDS011;28110;47.080;9.476;2024-01-15T04:43:10;22.88;;;11.98;;
42478;SDS011;28110;47.080;9.476;2024-01-15T04:45:36;21.03;;;11.20;;
42478;SDS011;28110;47.080;9.476;2024-01-15T04:48:02;20.77;;;11.50;;
42478;SDS011;28110;47.080;9.476;2024-01-15T04:50:28;20.92;;;11.60;;
42478;SDS011;28110;47.080;9.476;2024-01-15T04:52:53;20.50;;;11.38;;
42478;SDS011;28110;47.080;9.476;2024-01-15T04:55:19;22.65;;;12.18;;
42478;SDS011;28110;47.080;9.476;2024-01-15T04:57:44;22.73;;;12.13;;
42478;SDS011;28110;47.080;9.476;2024-01-15T05:00:10;21.53;;;11.80;;
42478;SDS011;28110;47.080;9.476;2024-01-15T05:02:37;23.33;;;12.63;;
42478;SDS011;28110;47.080;9.476;2024-01-15T05:05:02;20.80;;;11.37;;
42478;SDS011;28110;47.080;9.476;2024-01-15T05:07:28;25.88;;;12.77;;
42478;SDS011;28110;47.080;9.476;2024-01-15T05:09:53;26.20;;;13.33;;
42478;SDS011;28110;47.080;9.476;2024-01-15T05:12:19;21.60;;;11.82;;
42478;SDS011;28110;47.080;9.476;2024-01-15T05:14:45;20.95;;;11.38;;
42478;SDS011;28110;47.080;9.476;2024-01-15T05:17:10;24.30;;;12.87;;
42478;SDS011;28110;47.080;9.476;2024-01-15T05:19:36;20.57;;;11.97;;
42478;SDS011;28110;47.080;9.476;2024-01-15T05:22:01;25.05;;;12.70;;
42478;SDS011;28110;47.080;9.476;2024-01-15T05:24:27;24.73;;;13.00;;
42478;SDS011;28110;47.080;9.476;2024-01-15T05:26:52;23.97;;;12.97;;
42478;SDS011;28110;47.080;9.476;2024-01-15T05:29:18;24.67;;;12.10;;
42478;SDS011;28110;47.080;9.476;2024-01-15T05:31:43;23.90;;;12.87;;
42478;SDS011;28110;47.080;9.476;2024-01-15T05:34:09;21.93;;;12.13;;
42478;SDS011;28110;47.080;9.476;2024-01-15T05:36:34;26.80;;;13.05;;
42478;SDS011;28110;47.080;9.476;2024-01-15T05:39:00;25.83;;;12.80;;
42478;SDS011;28110;47.080;9.476;2024-01-15T05:41:25;24.77;;;12.40;;
42478;SDS011;28110;47.080;9.476;2024-01-15T05:43:51;24.73;;;12.02;;
42478;SDS011;28110;47.080;9.476;2024-01-15T05:46:17;25.00;;;12.33;;
42478;SDS011;28110;47.080;9.476;2024-01-15T05:48:42;24.88;;;13.20;;
42478;SDS011;28110;47.080;9.476;2024-01-15T05:51:08;23.10;;;12.67;;
42478;SDS011;28110;47.080;9.476;2024-01-15T05:53:33;27.67;;;12.80;;
42478;SDS011;28110;47.080;9.476;2024-01-15T05:55:59;25.50;;;13.88;;
42478;SDS011;28110;47.080;9.476;2024-01-15T05:58:26;22.60;;;12.33;;
42478;SDS011;28110;47.080;9.476;2024-01-15T06:00:51;25.90;;;13.50;;
42478;SDS011;28110;47.080;9.476;2024-01-15T06:03:17;24.20;;;12.77;;
42478;SDS011;28110;47.080;9.476;2024-01-15T06:05:42;23.10;;;12.57;;
42478;SDS011;28110;47.080;9.476;2024-01-15T06:08:08;23.92;;;13.05;;
42478;SDS011;28110;47.080;9.476;2024-01-15T06:10:34;22.00;;;12.93;;
42478;SDS011;28110;47.080;9.476;2024-01-15T06:12:59;23.63;;;12.85;;
42478;SDS011;28110;47.080;9.476;2024-01-15T06:15:25;28.70;;;13.13;;
42478;SDS011;28110;47.080;9.476;2024-01-15T06:17:50;23.80;;;11.83;;
42478;SDS011;28110;47.080;9.476;2024-01-15T06:20:16;23.98;;;12.00;;
42478;SDS011;28110;47.080;9.476;2024-01-15T06:22:41;24.00;;;12.43;;
42478;SDS011;28110;47.080;9.476;2024-01-15T06:25:07;24.80;;;12.87;;
42478;SDS011;28110;47.080;9.476;2024-01-15T06:27:33;20.15;;;12.23;;
42478;SDS011;28110;47.080;9.476;2024-01-15T06:29:59;22.50;;;12.20;;
42478;SDS011;28110;47.080;9.476;2024-01-15T06:32:24;22.10;;;12.15;;
42478;SDS011;28110;47.080;9.476;2024-01-15T06:34:50;25.87;;;13.60;;
42478;SDS011;28110;47.080;9.476;2024-01-15T06:37:15;23.73;;;12.73;;
42478;SDS011;28110;47.080;9.476;2024-01-15T06:39:41;23.02;;;12.50;;
42478;SDS011;28110;47.080;9.476;2024-01-15T06:42:06;23.67;;;13.10;;
42478;SDS011;28110;47.080;9.476;2024-01-15T06:44:32;24.37;;;12.87;;
42478;SDS011;28110;47.080;9.476;2024-01-15T06:46:57;26.15;;;12.77;;
42478;SDS011;28110;47.080;9.476;2024-01-15T06:49:27;26.63;;;13.60;;
42478;SDS011;28110;47.080;9.476;2024-01-15T06:51:55;25.92;;;12.90;;
42478;SDS011;28110;47.080;9.476;2024-01-15T06:54:21;27.88;;;12.75;;
42478;SDS011;28110;47.080;9.476;2024-01-15T06:56:47;25.38;;;13.30;;
42478;SDS011;28110;47.080;9.476;2024-01-15T06:59:12;25.63;;;12.60;;
42478;SDS011;28110;47.080;9.476;2024-01-15T07:01:38;22.40;;;12.23;;
42478;SDS011;28110;47.080;9.476;2024-01-15T07:04:03;22.75;;;11.50;;
42478;SDS011;28110;47.080;9.476;2024-01-15T07:06:29;19.93;;;11.10;;
42478;SDS011;28110;47.080;9.476;2024-01-15T07:08:55;24.48;;;12.15;;
42478;SDS011;28110;47.080;9.476;2024-01-15T07:11:21;19.80;;;10.33;;
42478;SDS011;28110;47.080;9.476;2024-01-15T07:13:47;20.60;;;9.18;;
42478;SDS011;28110;47.080;9.476;2024-01-15T07:16:12;18.13;;;9.07;;
42478;SDS011;28110;47.080;9.476;2024-01-15T07:18:38;18.43;;;8.97;;
42478;SDS011;28110;47.080;9.476;2024-01-15T07:21:03;17.88;;;8.70;;
42478;SDS011;28110;47.080;9.476;2024-01-15T07:23:30;21.20;;;9.03;;
42478;SDS011;28110;47.080;9.476;2024-01-15T07:25:56;19.92;;;10.20;;
42478;SDS011;28110;47.080;9.476;2024-01-15T07:28:22;20.40;;;10.05;;
42478;SDS011;28110;47.080;9.476;2024-01-15T07:30:48;19.77;;;8.77;;
42478;SDS011;28110;47.080;9.476;2024-01-15T07:33:14;15.63;;;7.07;;
42478;SDS011;28110;47.080;9.476;2024-01-15T07:35:39;14.03;;;6.93;;
42478;SDS011;28110;47.080;9.476;2024-01-15T07:38:05;11.75;;;5.95;;
42478;SDS011;28110;47.080;9.476;2024-01-15T07:40:30;13.98;;;6.45;;
42478;SDS011;28110;47.080;9.476;2024-01-15T07:42:56;11.97;;;5.93;;
42478;SDS011;28110;47.080;9.476;2024-01-15T07:45:23;11.73;;;5.37;;
42478;SDS011;28110;47.080;9.476;2024-01-15T07:47:48;12.60;;;5.55;;
42478;SDS011;28110;47.080;9.476;2024-01-15T07:50:14;10.60;;;4.97;;
42478;SDS011;28110;47.080;9.476;2024-01-15T07:52:40;13.93;;;5.00;;
42478;SDS011;28110;47.080;9.476;2024-01-15T07:55:08;10.40;;;4.05;;
42478;SDS011;28110;47.080;9.476;2024-01-15T07:57:34;11.30;;;4.47;;
42478;SDS011;28110;47.080;9.476;2024-01-15T08:00:01;11.18;;;5.03;;
42478;SDS011;28110;47.080;9.476;2024-01-15T08:02:28;10.73;;;5.00;;
42478;SDS011;28110;47.080;9.476;2024-01-15T08:04:54;12.90;;;5.47;;
42478;SDS011;28110;47.080;9.476;2024-01-15T08:07:19;14.20;;;5.30;;
42478;SDS011;28110;47.080;9.476;2024-01-15T08:09:45;10.77;;;5.15;;
42478;SDS011;28110;47.080;9.476;2024-01-15T08:12:12;9.20;;;4.03;;
42478;SDS011;28110;47.080;9.476;2024-01-15T08:14:38;10.38;;;4.55;;
42478;SDS011;28110;47.080;9.476;2024-01-15T08:17:04;12.40;;;4.37;;
42478;SDS011;28110;47.080;9.476;2024-01-15T08:19:29;10.27;;;4.45;;
42478;SDS011;28110;47.080;9.476;2024-01-15T08:21:55;12.07;;;4.40;;
42478;SDS011;28110;47.080;9.476;2024-01-15T08:24:20;10.13;;;3.93;;
42478;SDS011;28110;47.080;9.476;2024-01-15T08:26:46;9.55;;;4.47;;
42478;SDS011;28110;47.080;9.476;2024-01-15T08:29:12;12.40;;;4.53;;
42478;SDS011;28110;47.080;9.476;2024-01-15T08:31:37;9.80;;;4.30;;
42478;SDS011;28110;47.080;9.476;2024-01-15T08:34:03;8.95;;;4.18;;
42478;SDS011;28110;47.080;9.476;2024-01-15T08:36:28;9.47;;;4.20;;
42478;SDS011;28110;47.080;9.476;2024-01-15T08:38:57;9.02;;;4.07;;
42478;SDS011;28110;47.080;9.476;2024-01-15T08:41:22;10.73;;;4.33;;
42478;SDS011;28110;47.080;9.476;2024-01-15T08:43:48;10.75;;;5.30;;
42478;SDS011;28110;47.080;9.476;2024-01-15T08:46:14;8.07;;;3.87;;
42478;SDS011;28110;47.080;9.476;2024-01-15T08:48:39;10.90;;;4.70;;
42478;SDS011;28110;47.080;9.476;2024-01-15T08:51:05;10.52;;;4.50;;
42478;SDS011;28110;47.080;9.476;2024-01-15T08:53:30;9.50;;;3.73;;
42478;SDS011;28110;47.080;9.476;2024-01-15T08:55:56;11.63;;;4.20;;
42478;SDS011;28110;47.080;9.476;2024-01-15T08:58:23;9.87;;;4.30;;
42478;SDS011;28110;47.080;9.476;2024-01-15T09:00:48;10.80;;;4.53;;
42478;SDS011;28110;47.080;9.476;2024-01-15T09:03:14;11.20;;;4.67;;
42478;SDS011;28110;47.080;9.476;2024-01-15T09:05:39;9.73;;;4.37;;
42478;SDS011;28110;47.080;9.476;2024-01-15T09:08:05;11.35;;;4.75;;
42478;SDS011;28110;47.080;9.476;2024-01-15T09:10:31;8.77;;;4.43;;
42478;SDS011;28110;47.080;9.476;2024-01-15T09:12:57;9.13;;;3.90;;
42478;SDS011;28110;47.080;9.476;2024-01-15T09:15:22;9.88;;;4.55;;
42478;SDS011;28110;47.080;9.476;2024-01-15T09:17:49;8.40;;;4.10;;
42478;SDS011;28110;47.080;9.476;2024-01-15T09:20:14;8.63;;;3.72;;
42478;SDS011;28110;47.080;9.476;2024-01-15T09:22:40;11.37;;;4.60;;
42478;SDS011;28110;47.080;9.476;2024-01-15T09:25:07;9.70;;;4.45;;
42478;SDS011;28110;47.080;9.476;2024-01-15T09:27:36;10.32;;;4.90;;
42478;SDS011;28110;47.080;9.476;2024-01-15T09:30:03;9.88;;;4.10;;
42478;SDS011;28110;47.080;9.476;2024-01-15T09:32:29;9.77;;;4.78;;
42478;SDS011;28110;47.080;9.476;2024-01-15T09:34:55;9.93;;;4.17;;
42478;SDS011;28110;47.080;9.476;2024-01-15T09:37:20;12.07;;;4.80;;
42478;SDS011;28110;47.080;9.476;2024-01-15T09:39:46;9.30;;;4.20;;
42478;SDS011;28110;47.080;9.476;2024-01-15T09:42:13;8.77;;;4.10;;
42478;SDS011;28110;47.080;9.476;2024-01-15T09:44:39;10.20;;;4.07;;
42478;SDS011;28110;47.080;9.476;2024-01-15T09:47:05;11.23;;;3.85;;
42478;SDS011;28110;47.080;9.476;2024-01-15T09:49:31;9.88;;;4.47;;
42478;SDS011;28110;47.080;9.476;2024-01-15T09:51:56;8.13;;;3.53;;
42478;SDS011;28110;47.080;9.476;2024-01-15T09:54:23;7.72;;;3.70;;
42478;SDS011;28110;47.080;9.476;2024-01-15T09:56:48;8.10;;;3.77;;
42478;SDS011;28110;47.080;9.476;2024-01-15T09:59:15;8.23;;;4.07;;
42478;SDS011;28110;47.080;9.476;2024-01-15T10:01:42;7.37;;;3.47;;
42478;SDS011;28110;47.080;9.476;2024-01-15T10:04:09;9.70;;;4.00;;
42478;SDS011;28110;47.080;9.476;2024-01-15T10:06:36;9.70;;;4.35;;
42478;SDS011;28110;47.080;9.476;2024-01-15T10:09:03;12.15;;;4.72;;
42478;SDS011;28110;47.080;9.476;2024-01-15T10:11:28;10.83;;;4.80;;
42478;SDS011;28110;47.080;9.476;2024-01-15T10:13:56;10.60;;;4.53;;
42478;SDS011;28110;47.080;9.476;2024-01-15T10:16:22;10.45;;;4.72;;
42478;SDS011;28110;47.080;9.476;2024-01-15T10:18:48;10.47;;;4.60;;
42478;SDS011;28110;47.080;9.476;2024-01-15T10:21:14;8.80;;;4.88;;
42478;SDS011;28110;47.080;9.476;2024-01-15T10:23:40;8.88;;;4.68;;
42478;SDS011;28110;47.080;9.476;2024-01-15T10:26:07;9.55;;;4.38;;
42478;SDS011;28110;47.080;9.476;2024-01-15T10:28:33;8.27;;;3.73;;
42478;SDS011;28110;47.080;9.476;2024-01-15T10:30:59;9.38;;;4.38;;
42478;SDS011;28110;47.080;9.476;2024-01-15T10:33:25;8.13;;;4.27;;
42478;SDS011;28110;47.080;9.476;2024-01-15T10:35:54;8.60;;;3.97;;
42478;SDS011;28110;47.080;9.476;2024-01-15T10:38:25;8.45;;;4.00;;
42478;SDS011;28110;47.080;9.476;2024-01-15T10:40:51;7.40;;;3.50;;
42478;SDS011;28110;47.080;9.476;2024-01-15T10:43:17;8.05;;;3.45;;
42478;SDS011;28110;47.080;9.476;2024-01-15T10:45:46;7.35;;;3.40;;
42478;SDS011;28110;47.080;9.476;2024-01-15T10:48:12;8.02;;;3.45;;
42478;SDS011;28110;47.080;9.476;2024-01-15T10:50:38;9.57;;;3.73;;
42478;SDS011;28110;47.080;9.476;2024-01-15T10:53:04;9.45;;;3.72;;
42478;SDS011;28110;47.080;9.476;2024-01-15T10:55:30;12.67;;;4.17;;
42478;SDS011;28110;47.080;9.476;2024-01-15T10:57:57;10.38;;;4.13;;
42478;SDS011;28110;47.080;9.476;2024-01-15T11:00:23;6.90;;;3.50;;
42478;SDS011;28110;47.080;9.476;2024-01-15T11:02:50;8.50;;;3.80;;
42478;SDS011;28110;47.080;9.476;2024-01-15T11:05:16;10.48;;;4.60;;
42478;SDS011;28110;47.080;9.476;2024-01-15T11:07:43;10.63;;;4.13;;
42478;SDS011;28110;47.080;9.476;2024-01-15T11:10:37;9.00;;;4.00;;
42478;SDS011;28110;47.080;9.476;2024-01-15T11:13:54;8.32;;;3.47;;
42478;SDS011;28110;47.080;9.476;2024-01-15T11:15:58;9.40;;;4.20;;
42478;SDS011;28110;47.080;9.476;2024-01-15T11:18:27;9.93;;;3.78;;
42478;SDS011;28110;47.080;9.476;2024-01-15T11:23:45;7.53;;;3.45;;
42478;SDS011;28110;47.080;9.476;2024-01-15T11:29:04;9.13;;;4.10;;
42478;SDS011;28110;47.080;9.476;2024-01-15T11:34:09;8.40;;;3.93;;
42478;SDS011;28110;47.080;9.476;2024-01-15T11:37:00;9.45;;;4.38;;
42478;SDS011;28110;47.080;9.476;2024-01-15T11:41:56;10.30;;;4.03;;
42478;SDS011;28110;47.080;9.476;2024-01-15T11:44:23;9.25;;;3.88;;
42478;SDS011;28110;47.080;9.476;2024-01-15T11:46:59;8.87;;;3.87;;
42478;SDS011;28110;47.080;9.476;2024-01-15T11:52:27;7.55;;;3.10;;
42478;SDS011;28110;47.080;9.476;2024-01-15T11:57:45;8.63;;;3.17;;
42478;SDS011;28110;47.080;9.476;2024-01-15T12:00:12;7.80;;;3.70;;
42478;SDS011;28110;47.080;9.476;2024-01-15T12:02:45;8.65;;;3.65;;
42478;SDS011;28110;47.080;9.476;2024-01-15T12:05:11;8.88;;;3.92;;
42478;SDS011;28110;47.080;9.476;2024-01-15T12:07:42;10.50;;;4.87;;
42478;SDS011;28110;47.080;9.476;2024-01-15T12:10:09;9.38;;;4.10;;
42478;SDS011;28110;47.080;9.476;2024-01-15T12:15:27;10.75;;;5.40;;
42478;SDS011;28110;47.080;9.476;2024-01-15T12:17:57;9.43;;;4.35;;
42478;SDS011;28110;47.080;9.476;2024-01-15T12:20:24;8.60;;;4.10;;
42478;SDS011;28110;47.080;9.476;2024-01-15T12:22:51;9.23;;;4.30;;
42478;SDS011;28110;47.080;9.476;2024-01-15T12:25:17;9.25;;;4.30;;
42478;SDS011;28110;47.080;9.476;2024-01-15T12:27:42;8.27;;;4.10;;
42478;SDS011;28110;47.080;9.476;2024-01-15T12:30:11;7.38;;;3.75;;
42478;SDS011;28110;47.080;9.476;2024-01-15T12:32:38;7.25;;;3.40;;
42478;SDS011;28110;47.080;9.476;2024-01-15T12:35:04;6.17;;;3.10;;
42478;SDS011;28110;47.080;9.476;2024-01-15T12:37:30;7.68;;;3.70;;
42478;SDS011;28110;47.080;9.476;2024-01-15T12:39:56;7.57;;;3.50;;
42478;SDS011;28110;47.080;9.476;2024-01-15T12:42:24;8.13;;;3.97;;
42478;SDS011;28110;47.080;9.476;2024-01-15T12:44:49;8.38;;;3.65;;
42478;SDS011;28110;47.080;9.476;2024-01-15T12:47:15;8.23;;;3.70;;
42478;SDS011;28110;47.080;9.476;2024-01-15T12:49:46;8.20;;;3.72;;
42478;SDS011;28110;47.080;9.476;2024-01-15T12:52:13;8.85;;;4.10;;
42478;SDS011;28110;47.080;9.476;2024-01-15T12:54:38;9.63;;;4.23;;
42478;SDS011;28110;47.080;9.476;2024-01-15T12:57:04;7.28;;;3.58;;
42478;SDS011;28110;47.080;9.476;2024-01-15T12:59:29;8.00;;;3.53;;
42478;SDS011;28110;47.080;9.476;2024-01-15T13:01:55;6.57;;;3.30;;
42478;SDS011;28110;47.080;9.476;2024-01-15T13:04:21;7.05;;;3.58;;
42478;SDS011;28110;47.080;9.476;2024-01-15T13:06:50;8.43;;;3.53;;
42478;SDS011;28110;47.080;9.476;2024-01-15T13:09:16;6.50;;;3.72;;
42478;SDS011;28110;47.080;9.476;2024-01-15T13:11:45;10.57;;;3.80;;
42478;SDS011;28110;47.080;9.476;2024-01-15T13:14:11;7.35;;;4.82;;
42478;SDS011;28110;47.080;9.476;2024-01-15T13:16:41;6.90;;;3.72;;
42478;SDS011;28110;47.080;9.476;2024-01-15T13:19:10;6.67;;;4.17;;
42478;SDS011;28110;47.080;9.476;2024-01-15T13:21:39;11.95;;;3.95;;
42478;SDS011;28110;47.080;9.476;2024-01-15T13:24:05;7.85;;;3.83;;
42478;SDS011;28110;47.080;9.476;2024-01-15T13:26:32;10.30;;;3.65;;
42478;SDS011;28110;47.080;9.476;2024-01-15T13:28:59;8.00;;;4.38;;
42478;SDS011;28110;47.080;9.476;2024-01-15T13:31:25;8.23;;;4.27;;
42478;SDS011;28110;47.080;9.476;2024-01-15T13:33:51;8.13;;;4.13;;
42478;SDS011;28110;47.080;9.476;2024-01-15T13:36:17;7.20;;;4.10;;
42478;SDS011;28110;47.080;9.476;2024-01-15T13:38:42;8.18;;;4.10;;
42478;SDS011;28110;47.080;9.476;2024-01-15T13:41:08;8.03;;;4.00;;
42478;SDS011;28110;47.080;9.476;2024-01-15T13:43:34;7.82;;;4.38;;
42478;SDS011;28110;47.080;9.476;2024-01-15T13:46:00;7.57;;;3.87;;
42478;SDS011;28110;47.080;9.476;2024-01-15T13:48:25;6.90;;;4.03;;
42478;SDS011;28110;47.080;9.476;2024-01-15T13:50:52;8.93;;;4.40;;
42478;SDS011;28110;47.080;9.476;2024-01-15T13:53:18;9.48;;;4.32;;
42478;SDS011;28110;47.080;9.476;2024-01-15T13:55:44;9.98;;;4.65;;
42478;SDS011;28110;47.080;9.476;2024-01-15T13:58:09;10.40;;;6.03;;
42478;SDS011;28110;47.080;9.476;2024-01-15T14:00:35;8.17;;;4.07;;
42478;SDS011;28110;47.080;9.476;2024-01-15T14:03:01;11.48;;;4.68;;
42478;SDS011;28110;47.080;9.476;2024-01-15T14:05:27;14.60;;;5.57;;
42478;SDS011;28110;47.080;9.476;2024-01-15T14:07:52;12.77;;;4.80;;
42478;SDS011;28110;47.080;9.476;2024-01-15T14:10:18;7.53;;;3.85;;
42478;SDS011;28110;47.080;9.476;2024-01-15T14:12:43;15.90;;;7.17;;
42478;SDS011;28110;47.080;9.476;2024-01-15T14:15:09;16.50;;;6.72;;
42478;SDS011;28110;47.080;9.476;2024-01-15T14:17:34;11.03;;;4.93;;
42478;SDS011;28110;47.080;9.476;2024-01-15T14:20:00;7.60;;;3.50;;
42478;SDS011;28110;47.080;9.476;2024-01-15T14:22:26;8.68;;;3.40;;
42478;SDS011;28110;47.080;9.476;2024-01-15T14:24:51;6.47;;;3.13;;
42478;SDS011;28110;47.080;9.476;2024-01-15T14:27:17;6.47;;;3.33;;
42478;SDS011;28110;47.080;9.476;2024-01-15T14:29:43;7.97;;;4.07;;
42478;SDS011;28110;47.080;9.476;2024-01-15T14:32:08;6.77;;;3.63;;
42478;SDS011;28110;47.080;9.476;2024-01-15T14:34:34;6.80;;;3.50;;
42478;SDS011;28110;47.080;9.476;2024-01-15T14:37:02;6.55;;;3.20;;
42478;SDS011;28110;47.080;9.476;2024-01-15T14:39:28;6.97;;;3.37;;
42478;SDS011;28110;47.080;9.476;2024-01-15T14:41:53;7.82;;;3.70;;
42478;SDS011;28110;47.080;9.476;2024-01-15T14:44:19;5.43;;;2.50;;
42478;SDS011;28110;47.080;9.476;2024-01-15T14:46:44;5.13;;;2.53;;
42478;SDS011;28110;47.080;9.476;2024-01-15T14:49:10;4.97;;;2.50;;